Time;durP1;ratioP1;P1;durP2;ratioP2;P2;SDS_P1;SDS_P2;PMS_P1;PMS_P2;Temp;Humidity;BMP_temperature;BMP_pressure;BME280_temperature;BME280_humidity;BME280_pressure;Samples;Min_cycle;Max_cycle;Signal;HPM_P1;HPM_P2
2023/06/13 00:00:24;;;;;;;7.45;3.85;;;16.20;99.90;;;;;;5077825;28;20270;-91
2023/06/13 00:02:58;;;;;;;7.07;3.53;;;16.30;99.90;;;;;;5078470;28;20203;-90
2023/06/13 00:05:31;;;;;;;6.43;4.07;;;16.40;99.90;;;;;;5078092;28;20215;-90
2023/06/13 00:08:05;;;;;;;5.60;4.18;;;16.30;99.90;;;;;;5077634;28;20253;-90
2023/06/13 00:10:40;;;;;;;4.55;3.17;;;16.40;99.90;;;;;;5076498;28;20202;-90
2023/06/13 00:13:15;;;;;;;5.07;3.08;;;16.50;99.90;;;;;;5075547;28;20199;-90
2023/06/13 00:15:54;;;;;;;5.30;3.65;;;16.50;99.90;;;;;;5076175;28;20200;-91
2023/06/13 00:18:25;;;;;;;7.05;3.00;;;16.50;99.90;;;;;;5076365;28;20226;-90
2023/06/13 00:20:58;;;;;;;6.68;3.00;;;16.60;99.90;;;;;;5083832;28;20224;-89
2023/06/13 00:23:33;;;;;;;8.77;2.60;;;16.70;99.90;;;;;;5078757;28;20694;-90
2023/06/13 00:26:05;;;;;;;5.60;2.08;;;16.80;99.90;;;;;;5076255;28;20199;-90
2023/06/13 00:28:40;;;;;;;5.03;2.05;;;16.80;99.90;;;;;;5077160;28;20206;-89
2023/06/13 00:31:11;;;;;;;2.50;1.60;;;16.90;99.90;;;;;;5080046;28;20286;-89
2023/06/13 00:33:43;;;;;;;4.03;1.73;;;17.00;99.90;;;;;;5087976;28;20574;-90
2023/06/13 00:36:16;;;;;;;3.28;1.50;;;17.20;99.90;;;;;;5085362;28;20246;-91
2023/06/13 00:38:48;;;;;;;1.83;1.48;;;17.30;99.90;;;;;;5077809;28;20231;-91
2023/06/13 00:41:21;;;;;;;4.80;1.60;;;17.50;99.90;;;;;;5075984;28;20220;-90
2023/06/13 00:43:54;;;;;;;0.93;0.88;;;17.70;99.90;;;;;;5075333;28;20210;-90
2023/06/13 00:46:32;;;;;;;3.20;1.00;;;17.70;99.90;;;;;;5075460;28;20207;-90
2023/06/13 00:49:05;;;;;;;2.25;1.20;;;17.60;99.90;;;;;;5075437;28;20287;-89
2023/06/13 00:51:40;;;;;;;4.38;1.33;;;17.70;99.90;;;;;;5075580;28;20214;-90
2023/06/13 00:54:14;;;;;;;1.80;1.00;;;17.80;99.90;;;;;;5075688;28;20199;-90
2023/06/13 00:56:47;;;;;;;2.13;0.88;;;17.90;99.90;;;;;;5075521;28;20639;-89
2023/06/13 00:59:22;;;;;;;2.85;1.13;;;18.00;99.90;;;;;;5074249;28;20211;-89
2023/06/13 01:01:53;;;;;;;1.50;1.00;;;18.20;99.90;;;;;;5065159;28;20188;-90
2023/06/13 01:04:24;;;;;;;1.50;0.90;;;18.30;99.90;;;;;;5074593;28;20619;-89
2023/06/13 01:06:56;;;;;;;1.80;1.10;;;18.30;99.90;;;;;;5075800;28;20207;-88
2023/06/13 01:09:29;;;;;;;3.83;1.00;;;18.50;99.90;;;;;;5074215;28;20203;-91
2023/06/13 01:12:10;;;;;;;1.80;1.00;;;18.50;99.90;;;;;;5076593;28;20199;-89
2023/06/13 01:14:57;;;;;;;2.17;1.13;;;18.60;99.90;;;;;;5075359;28;20204;-88
2023/06/13 01:17:33;;;;;;;2.30;0.93;;;18.70;99.90;;;;;;5074057;28;20203;-89
2023/06/13 01:20:13;;;;;;;3.13;0.90;;;18.80;99.90;;;;;;5063781;28;20302;-89
2023/06/13 01:22:57;;;;;;;2.35;0.80;;;18.80;99.90;;;;;;5061169;28;20202;-89
2023/06/13 01:25:42;;;;;;;1.88;0.80;;;18.70;99.90;;;;;;5074353;28;20199;-90
2023/06/13 01:28:20;;;;;;;1.95;0.85;;;18.60;99.90;;;;;;5059915;28;20261;-90
2023/06/13 01:30:54;;;;;;;1.30;1.00;;;18.60;99.90;;;;;;5074776;28;20286;-89
2023/06/13 01:33:28;;;;;;;1.70;0.90;;;18.60;99.90;;;;;;5064020;28;20754;-88
2023/06/13 01:36:00;;;;;;;1.83;0.90;;;18.60;99.90;;;;;;5070732;28;20196;-89
2023/06/13 01:38:33;;;;;;;3.03;0.85;;;18.60;99.90;;;;;;5073513;28;20587;-90
2023/06/13 01:41:07;;;;;;;2.15;0.80;;;18.60;99.90;;;;;;5071209;28;20224;-91
2023/06/13 01:43:43;;;;;;;0.80;0.80;;;18.50;99.90;;;;;;5060428;28;20200;-90
2023/06/13 01:46:24;;;;;;;2.72;0.90;;;18.50;99.90;;;;;;5074339;28;20207;-89
2023/06/13 01:49:06;;;;;;;1.05;0.82;;;18.50;99.90;;;;;;5057555;28;20258;-89
2023/06/13 01:51:47;;;;;;;1.13;0.85;;;18.40;99.90;;;;;;5065704;28;20246;-89
2023/06/13 01:54:23;;;;;;;1.42;0.82;;;18.50;99.90;;;;;;5074101;28;20204;-89
2023/06/13 01:56:58;;;;;;;2.97;0.65;;;18.50;99.90;;;;;;5073692;28;20203;-90
2023/06/13 01:59:35;;;;;;;1.83;0.77;;;18.50;99.90;;;;;;5070125;28;20655;-89
2023/06/13 02:02:09;;;;;;;1.88;1.00;;;18.40;99.90;;;;;;5052866;28;20306;-89
2023/06/13 02:04:45;;;;;;;1.25;0.95;;;18.60;99.90;;;;;;5053754;28;20219;-90
2023/06/13 02:07:18;;;;;;;0.98;0.68;;;18.60;99.90;;;;;;5054373;28;20207;-90
2023/06/13 02:09:50;;;;;;;1.10;0.80;;;18.70;99.90;;;;;;5053891;28;20196;-90
2023/06/13 02:12:21;;;;;;;2.08;0.60;;;18.70;99.90;;;;;;5053719;28;20193;-89
2023/06/13 02:14:57;;;;;;;1.20;0.80;;;18.80;99.90;;;;;;5058297;28;20196;-89
2023/06/13 02:17:28;;;;;;;0.80;0.57;;;19.00;99.90;;;;;;5053914;28;20204;-89
2023/06/13 02:20:00;;;;;;;1.80;0.60;;;18.90;99.90;;;;;;5054096;28;20262;-89
2023/06/13 02:22:32;;;;;;;1.15;0.70;;;19.00;99.90;;;;;;5053811;28;20671;-88
2023/06/13 02:25:05;;;;;;;4.80;0.80;;;19.20;99.90;;;;;;5076023;28;20211;-89
2023/06/13 02:27:39;;;;;;;2.63;0.47;;;19.40;99.90;;;;;;5074703;28;20366;-89
2023/06/13 02:30:15;;;;;;;3.95;0.60;;;19.50;99.90;;;;;;5081364;28;20263;-87
2023/06/13 02:32:50;;;;;;;1.17;0.60;;;19.60;99.90;;;;;;5089341;28;20206;-89
2023/06/13 02:35:23;;;;;;;2.40;0.50;;;19.60;99.90;;;;;;5089165;28;20292;-88
2023/06/13 02:37:56;;;;;;;0.98;0.50;;;19.60;99.90;;;;;;5098628;28;20196;-87
2023/06/13 02:40:29;;;;;;;1.05;0.60;;;19.70;99.90;;;;;;5082091;28;20654;-90
2023/06/13 02:43:03;;;;;;;0.50;0.43;;;19.80;99.90;;;;;;5090526;28;20218;-90
2023/06/13 02:45:38;;;;;;;0.75;0.60;;;19.90;99.90;;;;;;5075117;28;20278;-90
2023/06/13 02:48:11;;;;;;;0.73;0.60;;;20.10;99.90;;;;;;5074365;28;20203;-90
2023/06/13 02:50:43;;;;;;;0.90;0.70;;;20.10;99.90;;;;;;5072710;28;20568;-91
2023/06/13 02:53:15;;;;;;;1.27;0.60;;;20.10;99.90;;;;;;5073755;28;20227;-89
2023/06/13 02:55:48;;;;;;;1.23;0.60;;;20.20;99.90;;;;;;5073736;28;20337;-90
2023/06/13 02:58:20;;;;;;;0.50;0.50;;;20.30;99.90;;;;;;5072540;28;20195;-90
2023/06/13 03:00:57;;;;;;;1.15;0.50;;;20.30;99.90;;;;;;5072132;28;20325;-90
2023/06/13 03:03:30;;;;;;;2.88;0.60;;;20.30;99.90;;;;;;5073235;28;20663;-88
2023/06/13 03:06:03;;;;;;;0.60;0.60;;;20.40;99.90;;;;;;5072784;28;20223;-90
2023/06/13 03:08:36;;;;;;;1.35;0.70;;;20.40;99.90;;;;;;5073127;28;20196;-91
2023/06/13 03:11:09;;;;;;;1.20;0.52;;;20.40;99.90;;;;;;5071604;28;20208;-90
2023/06/13 03:13:40;;;;;;;1.83;0.63;;;20.50;99.90;;;;;;5072839;28;20243;-90
2023/06/13 03:16:17;;;;;;;1.08;0.60;;;20.50;99.90;;;;;;5072850;28;20202;-90
2023/06/13 03:18:48;;;;;;;1.20;0.70;;;20.50;99.90;;;;;;5071738;28;20658;-89
2023/06/13 03:21:20;;;;;;;0.63;0.52;;;20.50;99.90;;;;;;5073705;28;20223;-90
2023/06/13 03:23:53;;;;;;;2.28;0.50;;;20.70;99.90;;;;;;5073171;28;20239;-91
2023/06/13 03:26:28;;;;;;;1.23;0.50;;;20.60;99.90;;;;;;5076384;28;20200;-91
2023/06/13 03:29:03;;;;;;;3.42;0.40;;;20.70;99.90;;;;;;5076228;28;20274;-91
2023/06/13 03:31:39;;;;;;;2.15;0.50;;;20.60;99.90;;;;;;5106228;28;20195;-90
2023/06/13 03:34:12;;;;;;;0.77;0.50;;;20.40;99.90;;;;;;5092758;28;20235;-89
2023/06/13 03:36:44;;;;;;;1.42;0.50;;;20.50;99.90;;;;;;5092930;28;20202;-91
2023/06/13 03:39:17;;;;;;;0.63;0.50;;;20.50;99.90;;;;;;5087769;28;20208;-90
2023/06/13 03:41:48;;;;;;;0.95;0.50;;;20.50;99.90;;;;;;5076599;28;20228;-90
2023/06/13 03:44:23;;;;;;;1.23;0.70;;;20.50;99.90;;;;;;5074917;28;20206;-91
2023/06/13 03:47:00;;;;;;;0.70;0.65;;;20.40;99.90;;;;;;5073261;28;20242;-90
2023/06/13 03:49:33;;;;;;;3.88;0.60;;;20.40;99.90;;;;;;5072605;28;20191;-89
2023/06/13 03:52:05;;;;;;;0.73;0.40;;;20.50;99.90;;;;;;5073946;28;20290;-90
2023/06/13 03:54:38;;;;;;;1.50;0.52;;;20.50;99.90;;;;;;5073701;28;20200;-90
2023/06/13 03:57:11;;;;;;;1.92;0.47;;;20.50;99.90;;;;;;5073915;28;20299;-90
2023/06/13 03:59:43;;;;;;;0.88;0.43;;;20.50;99.90;;;;;;5073389;28;20207;-90
2023/06/13 04:02:20;;;;;;;0.40;0.38;;;20.50;99.90;;;;;;5076030;28;20663;-90
2023/06/13 04:04:56;;;;;;;6.43;0.80;;;20.50;99.90;;;;;;5077566;28;20195;-90
2023/06/13 04:07:33;;;;;;;4.30;0.60;;;20.40;99.90;;;;;;5077346;28;20192;-90
2023/06/13 04:10:06;;;;;;;3.70;0.60;;;20.30;99.90;;;;;;5077268;28;20202;-91
2023/06/13 04:12:41;;;;;;;1.25;0.50;;;20.30;99.90;;;;;;5077094;28;20204;-90
2023/06/13 04:15:12;;;;;;;1.05;0.60;;;20.30;99.90;;;;;;5077324;28;20207;-90
2023/06/13 04:17:48;;;;;;;0.73;0.50;;;20.40;99.90;;;;;;5077783;28;20210;-90
2023/06/13 04:20:21;;;;;;;0.73;0.50;;;20.40;99.90;;;;;;5077245;28;20682;-91
2023/06/13 04:22:54;;;;;;;1.42;0.70;;;20.50;99.90;;;;;;5077272;28;20216;-89
2023/06/13 04:25:27;;;;;;;0.98;0.55;;;20.50;99.90;;;;;;5075588;28;20203;-90
2023/06/13 04:28:03;;;;;;;1.48;0.50;;;20.50;99.90;;;;;;5077031;28;20200;-89
2023/06/13 04:30:36;;;;;;;0.60;0.50;;;20.50;99.90;;;;;;5076659;28;20199;-89
2023/06/13 04:33:16;;;;;;;1.77;0.50;;;20.50;99.90;;;;;;5076267;28;20286;-91
2023/06/13 04:35:54;;;;;;;2.58;0.80;;;20.30;99.90;;;;;;5075593;28;20253;-90
2023/06/13 04:38:29;;;;;;;1.05;0.50;;;20.30;99.90;;;;;;5076365;28;20239;-90
2023/06/13 04:41:00;;;;;;;0.98;0.60;;;20.30;99.90;;;;;;5075974;28;20230;-90
2023/06/13 04:43:36;;;;;;;1.27;0.60;;;20.40;99.90;;;;;;5077203;28;20204;-90
2023/06/13 04:46:08;;;;;;;0.90;0.47;;;20.40;99.90;;;;;;5076234;28;20192;-89
2023/06/13 04:48:44;;;;;;;1.15;0.60;;;20.40;99.90;;;;;;5080751;28;20196;-89
2023/06/13 04:51:15;;;;;;;0.75;0.50;;;20.40;99.90;;;;;;5082356;28;20202;-90
2023/06/13 04:53:49;;;;;;;0.57;0.57;;;20.40;99.90;;;;;;5077364;28;20192;-90
2023/06/13 04:56:26;;;;;;;0.70;0.50;;;20.40;99.90;;;;;;5077988;28;20204;-90
2023/06/13 04:59:00;;;;;;;2.10;0.50;;;20.40;99.90;;;;;;5077967;28;20199;-90
2023/06/13 05:01:33;;;;;;;1.65;0.50;;;20.30;99.90;;;;;;5075567;28;20224;-90
2023/06/13 05:04:08;;;;;;;0.77;0.55;;;20.30;99.90;;;;;;5077625;28;20302;-90
2023/06/13 05:06:44;;;;;;;2.05;0.50;;;20.20;99.90;;;;;;5087339;28;20309;-91
2023/06/13 05:09:17;;;;;;;1.27;0.57;;;20.20;99.90;;;;;;5091420;28;20210;-90
2023/06/13 05:11:50;;;;;;;0.55;0.50;;;20.30;99.90;;;;;;5076486;28;20195;-90
2023/06/13 05:14:22;;;;;;;0.70;0.50;;;20.40;99.90;;;;;;5078042;28;20574;-91
2023/06/13 05:16:55;;;;;;;0.43;0.40;;;20.30;99.90;;;;;;5077333;28;20648;-89
2023/06/13 05:19:31;;;;;;;1.45;0.50;;;20.30;99.90;;;;;;5076265;28;20191;-91
2023/06/13 05:22:05;;;;;;;5.78;0.60;;;20.40;99.90;;;;;;5076422;28;20690;-90
2023/06/13 05:24:38;;;;;;;1.70;0.70;;;20.40;99.90;;;;;;5075432;28;20267;-90
2023/06/13 05:27:09;;;;;;;0.75;0.60;;;20.40;99.90;;;;;;5075777;28;20212;-90
2023/06/13 05:29:42;;;;;;;0.85;0.60;;;20.40;99.90;;;;;;5075690;28;20215;-90
2023/06/13 05:32:13;;;;;;;0.55;0.43;;;20.40;99.90;;;;;;5075288;28;20605;-91
2023/06/13 05:34:49;;;;;;;0.63;0.38;;;20.30;99.90;;;;;;5075610;28;20243;-90
2023/06/13 05:37:22;;;;;;;1.40;0.50;;;20.30;99.90;;;;;;5077861;28;20216;-90
2023/06/13 05:39:58;;;;;;;1.77;0.43;;;20.20;99.90;;;;;;5077256;28;20188;-90
2023/06/13 05:42:31;;;;;;;0.45;0.45;;;20.20;99.90;;;;;;5078447;28;20450;-91
2023/06/13 05:45:03;;;;;;;1.55;0.55;;;20.10;99.90;;;;;;5078497;28;20204;-90
2023/06/13 05:47:35;;;;;;;2.13;0.50;;;20.20;99.90;;;;;;5079361;28;20200;-91
2023/06/13 05:50:11;;;;;;;0.50;0.50;;;20.20;99.90;;;;;;5078750;28;20218;-90
2023/06/13 05:52:44;;;;;;;0.70;0.50;;;20.20;99.90;;;;;;5075960;28;20184;-90
2023/06/13 05:55:16;;;;;;;2.33;0.50;;;20.20;99.90;;;;;;5078156;28;20192;-90
2023/06/13 05:57:49;;;;;;;1.30;0.75;;;20.30;99.90;;;;;;5077906;28;20196;-90
2023/06/13 06:00:22;;;;;;;0.57;0.52;;;20.20;99.90;;;;;;5078182;28;20203;-90
2023/06/13 06:02:54;;;;;;;0.57;0.50;;;20.30;99.90;;;;;;5077573;28;20289;-89
2023/06/13 06:05:29;;;;;;;1.15;0.60;;;20.30;99.90;;;;;;5077344;28;20192;-91
2023/06/13 06:08:00;;;;;;;0.50;0.50;;;20.30;99.90;;;;;;5078218;28;20214;-90
2023/06/13 06:10:33;;;;;;;1.80;0.63;;;20.30;99.90;;;;;;5077844;28;20221;-90
2023/06/13 06:13:04;;;;;;;0.60;0.50;;;20.30;99.90;;;;;;5076073;28;20219;-90
2023/06/13 06:15:38;;;;;;;0.43;0.43;;;20.30;99.90;;;;;;5075363;28;20192;-91
2023/06/13 06:18:09;;;;;;;0.85;0.50;;;20.30;99.90;;;;;;5076663;28;20633;-90
2023/06/13 06:20:46;;;;;;;1.90;0.60;;;20.30;99.90;;;;;;5075567;28;20200;-90
2023/06/13 06:23:17;;;;;;;0.90;0.52;;;20.30;99.90;;;;;;5064514;28;20251;-91
2023/06/13 06:25:51;;;;;;;2.95;0.50;;;20.30;99.90;;;;;;5075090;28;20261;-89
2023/06/13 06:28:25;;;;;;;0.90;0.60;;;20.30;99.90;;;;;;5074853;28;20207;-90
2023/06/13 06:30:57;;;;;;;2.15;0.50;;;20.20;99.90;;;;;;5075684;28;20234;-90
2023/06/13 06:33:29;;;;;;;1.58;0.70;;;20.10;99.90;;;;;;5084769;28;20224;-89
2023/06/13 06:36:09;;;;;;;1.48;0.60;;;20.00;99.90;;;;;;5086776;28;20206;-90
2023/06/13 06:38:42;;;;;;;1.35;0.60;;;19.90;99.90;;;;;;5078220;28;20588;-90
2023/06/13 06:41:13;;;;;;;0.68;0.50;;;19.80;99.90;;;;;;5075297;28;20219;-89
2023/06/13 06:43:46;;;;;;;0.75;0.50;;;19.70;99.90;;;;;;5074954;28;20233;-90
2023/06/13 06:46:18;;;;;;;2.60;0.68;;;19.60;99.90;;;;;;5075508;28;20200;-90
2023/06/13 06:48:52;;;;;;;1.58;0.70;;;19.50;99.90;;;;;;5075235;28;20200;-90
2023/06/13 06:51:29;;;;;;;0.98;0.60;;;19.40;99.90;;;;;;5074565;28;20202;-90
2023/06/13 06:54:12;;;;;;;0.98;0.60;;;19.30;99.90;;;;;;5076171;28;20203;-89
2023/06/13 06:59:26;;;;;;;0.80;0.63;;;19.10;99.90;;;;;;5053256;28;20204;-90
2023/06/13 07:01:58;;;;;;;0.82;0.63;;;19.00;99.90;;;;;;5065559;28;20200;-90
2023/06/13 07:04:32;;;;;;;4.25;0.80;;;18.90;99.90;;;;;;5075757;28;20207;-90
2023/06/13 07:07:07;;;;;;;2.15;0.63;;;18.90;99.90;;;;;;5074431;28;20269;-89
2023/06/13 07:09:39;;;;;;;4.82;1.73;;;18.80;99.90;;;;;;5073558;28;20202;-89
2023/06/13 07:12:12;;;;;;;24.33;17.95;;;18.80;99.90;;;;;;5075355;28;21040;-90
2023/06/13 07:14:45;;;;;;;27.15;16.80;;;18.70;99.90;;;;;;5083700;28;20202;-88
2023/06/13 07:17:18;;;;;;;34.70;23.73;;;18.60;99.90;;;;;;5081701;28;20248;-89
2023/06/13 07:19:50;;;;;;;29.88;17.83;;;18.50;99.90;;;;;;5073850;28;20196;-89
2023/06/13 07:22:26;;;;;;;22.85;15.77;;;18.50;99.90;;;;;;5074071;28;20724;-89
2023/06/13 07:25:00;;;;;;;32.33;25.00;;;18.40;99.90;;;;;;5074259;28;20282;-90
2023/06/13 07:27:33;;;;;;;16.63;14.60;;;18.40;99.90;;;;;;5074257;28;20203;-90
2023/06/13 07:30:06;;;;;;;20.23;16.27;;;18.30;99.90;;;;;;5074470;28;20602;-90
2023/06/13 07:32:43;;;;;;;13.82;7.95;;;18.30;99.90;;;;;;5073920;28;20200;-89
2023/06/13 07:35:22;;;;;;;22.25;15.88;;;18.30;99.90;;;;;;5057790;28;20243;-89
2023/06/13 07:37:55;;;;;;;8.80;5.78;;;18.20;99.90;;;;;;5056185;28;20207;-90
2023/06/13 07:40:33;;;;;;;5.45;4.90;;;18.20;99.90;;;;;;5071002;28;20286;-90
2023/06/13 07:43:06;;;;;;;2.15;1.65;;;18.10;99.90;;;;;;5094366;28;20230;-88
2023/06/13 07:45:40;;;;;;;2.50;2.20;;;18.20;99.90;;;;;;5097262;28;20190;-89
2023/06/13 07:48:15;;;;;;;1.40;1.30;;;18.10;99.90;;;;;;5099860;28;20275;-88
2023/06/13 07:50:47;;;;;;;0.90;0.90;;;18.10;99.90;;;;;;5098038;28;20215;-90
2023/06/13 07:53:23;;;;;;;2.05;1.70;;;18.10;99.90;;;;;;5079371;28;20209;-89
2023/06/13 07:55:55;;;;;;;2.50;2.30;;;18.00;99.90;;;;;;5066869;28;20192;-89
2023/06/13 07:58:26;;;;;;;5.63;5.13;;;18.00;99.90;;;;;;5061443;28;20227;-90
2023/06/13 08:00:58;;;;;;;6.43;5.18;;;18.00;99.90;;;;;;5058833;28;20220;-89
2023/06/13 08:03:34;;;;;;;5.30;4.88;;;17.90;99.90;;;;;;5057149;28;20224;-89
2023/06/13 08:06:11;;;;;;;5.30;4.80;;;18.00;99.90;;;;;;5070953;28;20211;-90
2023/06/13 08:08:52;;;;;;;4.47;4.07;;;17.90;99.90;;;;;;5077762;28;20195;-89
2023/06/13 08:11:25;;;;;;;2.28;1.70;;;18.00;99.90;;;;;;5081141;28;20202;-89
2023/06/13 08:13:58;;;;;;;3.58;3.28;;;17.90;99.90;;;;;;5078772;28;20260;-90
2023/06/13 08:16:30;;;;;;;2.25;1.92;;;17.90;99.90;;;;;;5080585;28;20185;-90
2023/06/13 08:19:00;;;;;;;3.13;2.83;;;17.90;99.90;;;;;;5078062;28;20284;-90
2023/06/13 08:21:36;;;;;;;2.60;1.90;;;17.90;99.90;;;;;;5078151;28;20207;-90
2023/06/13 08:24:12;;;;;;;1.10;1.00;;;17.80;99.90;;;;;;5077314;28;20215;-90
2023/06/13 08:26:45;;;;;;;2.20;1.40;;;17.80;99.90;;;;;;5060445;28;20219;-90
2023/06/13 08:29:20;;;;;;;0.80;0.80;;;17.80;99.90;;;;;;5079354;28;20200;-90
2023/06/13 08:31:55;;;;;;;1.25;0.90;;;17.80;99.90;;;;;;5077439;28;20281;-89
2023/06/13 08:34:27;;;;;;;1.33;0.90;;;17.80;99.90;;;;;;5078565;28;20319;-90
2023/06/13 08:37:02;;;;;;;1.00;0.85;;;17.80;99.90;;;;;;5061346;28;20205;-89
2023/06/13 08:39:37;;;;;;;1.25;0.85;;;17.80;99.90;;;;;;5068451;28;20204;-91
2023/06/13 08:42:10;;;;;;;0.80;0.80;;;17.70;99.90;;;;;;5077689;28;20234;-91
2023/06/13 08:44:45;;;;;;;1.45;1.05;;;17.80;99.90;;;;;;5077879;28;20670;-90
2023/06/13 08:47:18;;;;;;;3.22;2.20;;;17.70;99.90;;;;;;5079326;28;20203;-89
2023/06/13 08:49:52;;;;;;;3.38;2.30;;;17.80;99.90;;;;;;5077976;28;20203;-91
2023/06/13 08:52:27;;;;;;;2.45;1.45;;;17.70;99.90;;;;;;5078500;28;20326;-90
2023/06/13 08:55:06;;;;;;;4.43;1.90;;;17.60;99.90;;;;;;5076268;28;20550;-90
2023/06/13 08:57:58;;;;;;;1.90;1.52;;;17.60;99.90;;;;;;5082409;28;20204;-92
2023/06/13 09:00:40;;;;;;;2.88;2.00;;;17.60;99.90;;;;;;5081726;28;20204;-90
2023/06/13 09:03:15;;;;;;;4.10;1.58;;;17.70;99.90;;;;;;5080882;28;20234;-90
2023/06/13 09:05:48;;;;;;;2.58;2.05;;;17.60;99.90;;;;;;5079856;28;20206;-90
2023/06/13 09:08:22;;;;;;;4.65;3.15;;;17.70;99.90;;;;;;5081206;28;20201;-90
2023/06/13 09:11:03;;;;;;;4.22;2.65;;;17.70;99.90;;;;;;5082464;28;20206;-90
2023/06/13 09:13:38;;;;;;;5.22;2.08;;;17.70;99.90;;;;;;5085550;28;20211;-89
2023/06/13 09:16:13;;;;;;;2.10;1.40;;;17.70;99.90;;;;;;5086808;28;20206;-89
2023/06/13 09:21:28;;;;;;;3.78;1.88;;;17.70;99.90;;;;;;5091894;28;20202;-89
2023/06/13 09:24:00;;;;;;;2.75;1.63;;;17.60;99.90;;;;;;5087806;28;20230;-90
2023/06/13 09:26:40;;;;;;;3.88;1.35;;;17.60;99.90;;;;;;5081126;28;20208;-91
2023/06/13 09:29:23;;;;;;;1.88;1.25;;;17.50;99.90;;;;;;5080702;28;20203;-89
2023/06/13 09:32:02;;;;;;;1.73;1.00;;;17.50;99.90;;;;;;5057223;28;20200;-88
2023/06/13 09:34:37;;;;;;;2.05;1.27;;;17.50;99.90;;;;;;5055470;28;20264;-89
2023/06/13 09:37:12;;;;;;;1.50;1.17;;;17.40;99.90;;;;;;5079728;28;20207;-90
2023/06/13 09:39:51;;;;;;;3.90;1.30;;;17.30;99.90;;;;;;5059162;28;20535;-90
2023/06/13 09:42:31;;;;;;;3.38;2.67;;;17.30;99.90;;;;;;5060178;28;20204;-91
2023/06/13 09:45:04;;;;;;;1.60;1.35;;;17.30;99.90;;;;;;5058683;28;20200;-91
2023/06/13 09:47:44;;;;;;;1.95;1.52;;;17.30;99.90;;;;;;5070829;28;20238;-90
2023/06/13 09:50:16;;;;;;;6.50;3.47;;;17.20;99.90;;;;;;5079063;28;20663;-89
2023/06/13 09:52:51;;;;;;;4.30;3.40;;;17.20;99.90;;;;;;5078830;28;20188;-90
2023/06/13 09:55:27;;;;;;;4.25;3.10;;;17.20;99.90;;;;;;5064056;28;20218;-90
2023/06/13 09:58:10;;;;;;;3.38;2.90;;;17.20;99.90;;;;;;5058961;28;20291;-90
2023/06/13 10:00:41;;;;;;;2.03;1.60;;;17.10;99.90;;;;;;5058627;28;20739;-90
2023/06/13 10:03:16;;;;;;;2.10;1.27;;;17.10;99.90;;;;;;5057575;28;20216;-91
2023/06/13 10:05:50;;;;;;;2.22;1.58;;;17.10;99.90;;;;;;5065763;28;20200;-89
2023/06/13 10:08:34;;;;;;;2.00;1.65;;;17.10;99.90;;;;;;5065068;28;20341;-91
2023/06/13 10:11:11;;;;;;;2.28;2.05;;;17.10;99.90;;;;;;5062616;28;20196;-91
2023/06/13 10:13:58;;;;;;;1.80;1.70;;;17.10;99.90;;;;;;5079327;28;20200;-90
2023/06/13 10:16:32;;;;;;;2.65;1.80;;;17.10;99.90;;;;;;5074933;28;20199;-92
2023/06/13 10:19:12;;;;;;;2.83;1.80;;;17.00;99.90;;;;;;5065351;28;20245;-90
2023/06/13 10:21:54;;;;;;;1.95;1.50;;;17.00;99.90;;;;;;5076448;28;20211;-90
2023/06/13 10:24:33;;;;;;;5.75;1.40;;;16.90;99.90;;;;;;5082038;28;20275;-91
2023/06/13 10:30:33;;;;;;;2.22;1.30;;;16.90;99.90;;;;;;5082990;28;20601;-91
2023/06/13 10:33:34;;;;;;;1.63;1.30;;;16.80;99.90;;;;;;5081265;28;20203;-90
2023/06/13 10:36:21;;;;;;;2.08;1.20;;;16.80;99.90;;;;;;5080602;28;20183;-91
2023/06/13 10:39:28;;;;;;;1.58;1.40;;;16.70;99.90;;;;;;5080571;28;20629;-90
2023/06/13 10:42:27;;;;;;;2.15;1.63;;;16.70;99.90;;;;;;5080904;28;20263;-90
2023/06/13 10:45:04;;;;;;;2.80;1.92;;;16.80;99.90;;;;;;5080781;28;20218;-90
2023/06/13 10:47:39;;;;;;;1.50;1.35;;;16.70;99.90;;;;;;5081713;28;20681;-91
2023/06/13 10:50:40;;;;;;;2.90;1.20;;;16.70;99.90;;;;;;5081117;28;20188;-91
2023/06/13 10:53:27;;;;;;;2.95;1.42;;;16.70;99.90;;;;;;5078852;28;20212;-90
2023/06/13 10:56:04;;;;;;;2.45;1.52;;;16.60;99.90;;;;;;5075915;28;20200;-91
2023/06/13 10:58:37;;;;;;;1.73;1.33;;;16.60;99.90;;;;;;5078097;28;20280;-90
2023/06/13 11:01:32;;;;;;;2.17;1.48;;;16.60;99.90;;;;;;5076157;28;20192;-91
2023/06/13 11:04:12;;;;;;;1.75;1.17;;;16.60;99.90;;;;;;5077687;28;20219;-90
2023/06/13 11:06:50;;;;;;;1.40;1.23;;;16.50;99.90;;;;;;5076580;28;21129;-91
2023/06/13 11:09:23;;;;;;;2.08;1.10;;;16.50;99.90;;;;;;5075358;28;20206;-90
2023/06/13 11:11:59;;;;;;;1.55;1.13;;;16.40;99.90;;;;;;5075576;28;20199;-90
2023/06/13 11:14:32;;;;;;;2.25;1.30;;;16.40;99.90;;;;;;5077927;28;20199;-90
2023/06/13 11:17:06;;;;;;;2.10;1.55;;;16.40;99.90;;;;;;5075743;28;20192;-90
2023/06/13 11:19:43;;;;;;;2.35;1.70;;;16.30;99.90;;;;;;5073000;28;20199;-90
2023/06/13 11:22:21;;;;;;;3.75;1.27;;;16.30;99.90;;;;;;5073188;28;20551;-90
2023/06/13 11:24:58;;;;;;;1.52;1.30;;;16.30;99.90;;;;;;5075297;28;20249;-88
2023/06/13 11:27:32;;;;;;;2.80;1.60;;;16.30;99.90;;;;;;5086364;28;20214;-90
2023/06/13 11:30:05;;;;;;;2.40;1.90;;;16.30;99.90;;;;;;5088107;28;20198;-90
2023/06/13 11:32:38;;;;;;;1.38;1.27;;;16.30;99.90;;;;;;5079397;28;20279;-90
2023/06/13 11:35:13;;;;;;;2.40;1.35;;;16.30;99.90;;;;;;5077372;28;20238;-89
2023/06/13 11:37:56;;;;;;;2.17;1.58;;;16.30;99.90;;;;;;5077107;28;20206;-90
2023/06/13 11:40:33;;;;;;;2.45;1.10;;;16.20;99.90;;;;;;5077471;28;20200;-91
2023/06/13 11:43:06;;;;;;;1.20;1.10;;;16.10;99.90;;;;;;5078754;28;20227;-91
2023/06/13 11:45:39;;;;;;;1.90;1.55;;;16.00;99.90;;;;;;5078257;28;20234;-90
2023/06/13 11:48:15;;;;;;;1.52;1.25;;;16.00;99.90;;;;;;5077213;28;20200;-90
2023/06/13 11:50:46;;;;;;;5.18;1.30;;;16.00;99.90;;;;;;5078548;28;20184;-89
2023/06/13 11:53:22;;;;;;;1.10;1.00;;;16.00;99.90;;;;;;5082662;28;20203;-91
2023/06/13 11:56:08;;;;;;;2.83;1.38;;;15.90;99.90;;;;;;5083894;28;20214;-89
2023/06/13 11:58:47;;;;;;;2.85;1.40;;;15.90;99.90;;;;;;5058383;28;20663;-91
2023/06/13 12:01:21;;;;;;;1.23;1.13;;;15.80;99.90;;;;;;5074168;28;20207;-91
2023/06/13 12:03:56;;;;;;;1.40;1.30;;;15.80;99.90;;;;;;5077946;28;20245;-90
2023/06/13 12:06:30;;;;;;;1.38;1.27;;;15.80;99.90;;;;;;5075942;28;20195;-90
2023/06/13 12:09:08;;;;;;;1.88;1.25;;;15.80;99.90;;;;;;5076672;28;20199;-91
2023/06/13 12:11:40;;;;;;;1.25;1.10;;;15.70;99.90;;;;;;5073743;28;20195;-90
2023/06/13 12:14:12;;;;;;;2.03;1.20;;;15.70;99.90;;;;;;5077527;28;20226;-91
2023/06/13 12:16:43;;;;;;;1.40;1.13;;;15.70;99.90;;;;;;5080630;28;20671;-90
2023/06/13 12:19:21;;;;;;;1.02;1.00;;;15.70;99.90;;;;;;5078686;28;20207;-91
2023/06/13 12:21:55;;;;;;;1.65;0.93;;;15.60;99.90;;;;;;5057166;28;20193;-90
2023/06/13 12:24:30;;;;;;;1.58;0.88;;;15.60;99.90;;;;;;5058996;28;20232;-90
2023/06/13 12:27:02;;;;;;;1.20;1.10;;;15.60;99.90;;;;;;5060623;28;20200;-91
2023/06/13 12:29:37;;;;;;;1.10;1.00;;;15.60;99.90;;;;;;5060344;28;20192;-91
2023/06/13 12:32:26;;;;;;;1.75;1.00;;;15.50;99.90;;;;;;5070649;28;20227;-90
2023/06/13 12:35:31;;;;;;;1.60;0.88;;;15.50;99.90;;;;;;5073989;28;20217;-91
2023/06/13 12:38:06;;;;;;;1.48;0.82;;;15.30;99.90;;;;;;5072074;28;20643;-91
2023/06/13 12:40:51;;;;;;;0.70;0.70;;;15.30;99.90;;;;;;5072198;28;20279;-91
2023/06/13 12:59:02;;;;;;;0.90;0.80;;;15.10;99.90;;;;;;5209689;22;20210;-91
2023/06/13 13:10:49;;;;;;;3.70;0.88;;;15.20;99.90;;;;;;5110510;28;20229;-90
2023/06/13 13:13:46;;;;;;;0.80;0.80;;;15.10;99.90;;;;;;5110331;28;20208;-91
2023/06/13 13:16:21;;;;;;;0.70;0.70;;;15.00;99.90;;;;;;5106870;28;20195;-91
2023/06/13 13:40:12;;;;;;;0.85;0.40;;;14.90;99.90;;;;;;4958790;28;20180;-90
2023/06/13 14:03:26;;;;;;;0.45;0.45;;;14.90;99.90;;;;;;5099672;28;20222;-92
2023/06/13 14:15:59;;;;;;;1.13;0.60;;;14.80;99.90;;;;;;5077139;28;20249;-92
2023/06/13 14:19:17;;;;;;;1.23;0.60;;;14.90;99.90;;;;;;5071263;28;20200;-91
2023/06/13 14:31:47;;;;;;;0.68;0.47;;;14.80;99.90;;;;;;5056437;28;20236;-91
2023/06/13 14:34:18;;;;;;;0.50;0.50;;;14.80;99.90;;;;;;5053694;28;20248;-90
2023/06/13 14:36:53;;;;;;;0.63;0.40;;;14.70;99.90;;;;;;5051848;28;20201;-90
2023/06/13 14:39:24;;;;;;;0.55;0.52;;;14.70;99.90;;;;;;5085386;28;20198;-91
2023/06/13 14:41:57;;;;;;;0.52;0.50;;;14.70;99.90;;;;;;5094607;28;20203;-90
2023/06/13 14:44:28;;;;;;;1.75;0.45;;;14.70;99.90;;;;;;5094648;28;20239;-91
2023/06/13 14:47:03;;;;;;;0.60;0.50;;;14.70;99.90;;;;;;5093460;28;20198;-90
2023/06/13 14:49:34;;;;;;;0.98;0.50;;;14.70;99.90;;;;;;5093888;28;20212;-91
2023/06/13 14:52:05;;;;;;;0.82;0.50;;;14.70;99.90;;;;;;5104715;28;20198;-91
2023/06/13 14:54:37;;;;;;;0.50;0.50;;;14.70;99.90;;;;;;5093326;28;20203;-91
2023/06/13 14:57:10;;;;;;;0.55;0.45;;;14.70;99.90;;;;;;5093465;28;20255;-91
2023/06/13 14:59:41;;;;;;;0.65;0.50;;;14.70;99.90;;;;;;5092057;28;20227;-90
2023/06/13 15:02:16;;;;;;;0.43;0.40;;;14.70;99.90;;;;;;5092794;28;20662;-91